sensor_id;sensor_type;location;lat;lon;timestamp;pressure;altitude;pressure_sealevel;temperature;humidity
32638;BME280;19045;52.268;10.506;2022-07-05T00:00:52;101059.91;;;18.13;71.01
32638;BME280;19045;52.268;10.506;2022-07-05T00:03:19;101058.38;;;18.07;71.74
32638;BME280;19045;52.268;10.506;2022-07-05T00:05:46;101050.03;;;18.22;70.45
32638;BME280;19045;52.268;10.506;2022-07-05T00:08:12;101055.75;;;18.21;70.74
32638;BME280;19045;52.268;10.506;2022-07-05T00:10:39;101057.41;;;18.17;70.90
32638;BME280;19045;52.268;10.506;2022-07-05T00:13:06;101062.44;;;18.10;71.11
32638;BME280;19045;52.268;10.506;2022-07-05T00:15:35;101058.94;;;18.04;71.74
32638;BME280;19045;52.268;10.506;2022-07-05T00:18:02;101059.59;;;17.96;72.07
32638;BME280;19045;52.268;10.506;2022-07-05T00:20:29;101055.25;;;17.95;72.11
32638;BME280;19045;52.268;10.506;2022-07-05T00:22:55;101052.91;;;17.88;72.90
32638;BME280;19045;52.268;10.506;2022-07-05T00:25:22;101056.13;;;17.90;72.78
32638;BME280;19045;52.268;10.506;2022-07-05T00:27:48;101067.22;;;17.94;72.19
32638;BME280;19045;52.268;10.506;2022-07-05T00:30:15;101064.50;;;17.94;71.93
32638;BME280;19045;52.268;10.506;2022-07-05T00:32:43;101071.41;;;17.86;72.87
32638;BME280;19045;52.268;10.506;2022-07-05T00:35:10;101069.81;;;17.80;72.93
32638;BME280;19045;52.268;10.506;2022-07-05T00:37:37;101073.44;;;17.76;72.98
32638;BME280;19045;52.268;10.506;2022-07-05T00:40:05;101071.22;;;17.78;73.39
32638;BME280;19045;52.268;10.506;2022-07-05T00:42:33;101071.19;;;17.83;73.04
32638;BME280;19045;52.268;10.506;2022-07-05T00:44:59;101078.88;;;17.76;72.96
32638;BME280;19045;52.268;10.506;2022-07-05T00:47:26;101074.00;;;17.73;73.46
32638;BME280;19045;52.268;10.506;2022-07-05T00:49:54;101082.16;;;17.73;73.67
32638;BME280;19045;52.268;10.506;2022-07-05T00:52:22;101078.09;;;17.70;74.03
32638;BME280;19045;52.268;10.506;2022-07-05T00:54:49;101077.31;;;17.70;73.83
32638;BME280;19045;52.268;10.506;2022-07-05T00:57:16;101085.50;;;17.65;74.47
32638;BME280;19045;52.268;10.506;2022-07-05T00:59:42;101074.88;;;17.68;73.70
32638;BME280;19045;52.268;10.506;2022-07-05T01:02:09;101082.19;;;17.68;73.93
32638;BME280;19045;52.268;10.506;2022-07-05T01:04:36;101086.88;;;17.62;74.38
32638;BME280;19045;52.268;10.506;2022-07-05T01:07:04;101085.56;;;17.60;73.52
32638;BME280;19045;52.268;10.506;2022-07-05T01:09:33;101084.50;;;17.55;74.59
32638;BME280;19045;52.268;10.506;2022-07-05T01:12:00;101087.00;;;17.47;74.34
32638;BME280;19045;52.268;10.506;2022-07-05T01:14:27;101088.63;;;17.48;74.93
32638;BME280;19045;52.268;10.506;2022-07-05T01:16:53;101086.22;;;17.46;74.76
32638;BME280;19045;52.268;10.506;2022-07-05T01:19:21;101084.59;;;17.45;74.94
32638;BME280;19045;52.268;10.506;2022-07-05T01:21:48;101085.63;;;17.49;74.84
32638;BME280;19045;52.268;10.506;2022-07-05T01:24:18;101084.28;;;17.47;74.56
32638;BME280;19045;52.268;10.506;2022-07-05T01:26:47;101088.72;;;17.38;74.76
32638;BME280;19045;52.268;10.506;2022-07-05T01:29:14;101088.72;;;17.09;76.75
32638;BME280;19045;52.268;10.506;2022-07-05T01:31:42;101088.38;;;16.82;77.85
32638;BME280;19045;52.268;10.506;2022-07-05T01:34:09;101089.31;;;16.62;79.19
32638;BME280;19045;52.268;10.506;2022-07-05T01:36:36;101087.44;;;16.58;79.88
32638;BME280;19045;52.268;10.506;2022-07-05T01:39:04;101083.16;;;16.41;80.50
32638;BME280;19045;52.268;10.506;2022-07-05T01:41:32;101084.22;;;16.45;80.46
32638;BME280;19045;52.268;10.506;2022-07-05T01:44:00;101088.34;;;16.33;80.55
32638;BME280;19045;52.268;10.506;2022-07-05T01:46:30;101085.19;;;16.16;81.25
32638;BME280;19045;52.268;10.506;2022-07-05T01:49:00;101088.19;;;16.09;82.36
32638;BME280;19045;52.268;10.506;2022-07-05T01:51:33;101086.25;;;16.15;81.98
32638;BME280;19045;52.268;10.506;2022-07-05T01:54:00;101089.00;;;16.10;81.79
32638;BME280;19045;52.268;10.506;2022-07-05T01:56:27;101095.81;;;16.02;82.34
32638;BME280;19045;52.268;10.506;2022-07-05T01:58:56;101091.50;;;15.91;83.12
32638;BME280;19045;52.268;10.506;2022-07-05T02:01:33;101090.22;;;15.68;84.37
32638;BME280;19045;52.268;10.506;2022-07-05T02:04:01;101091.06;;;15.43;86.22
32638;BME280;19045;52.268;10.506;2022-07-05T02:06:30;101092.69;;;15.24;87.61
32638;BME280;19045;52.268;10.506;2022-07-05T02:08:57;101078.34;;;15.14;89.30
32638;BME280;19045;52.268;10.506;2022-07-05T02:11:24;101076.72;;;15.18;89.27
32638;BME280;19045;52.268;10.506;2022-07-05T02:13:51;101069.13;;;15.20;88.74
32638;BME280;19045;52.268;10.506;2022-07-05T02:16:22;101067.53;;;15.24;88.78
32638;BME280;19045;52.268;10.506;2022-07-05T02:18:48;101065.59;;;15.29;88.35
32638;BME280;19045;52.268;10.506;2022-07-05T02:21:15;101068.84;;;15.36;87.92
32638;BME280;19045;52.268;10.506;2022-07-05T02:23:42;101074.53;;;15.40;87.83
32638;BME280;19045;52.268;10.506;2022-07-05T02:26:08;101075.63;;;15.44;87.69
32638;BME280;19045;52.268;10.506;2022-07-05T02:28:35;101074.25;;;15.57;86.62
32638;BME280;19045;52.268;10.506;2022-07-05T02:31:02;101076.41;;;15.70;85.27
32638;BME280;19045;52.268;10.506;2022-07-05T02:33:30;101078.00;;;15.76;85.07
32638;BME280;19045;52.268;10.506;2022-07-05T02:35:57;101071.78;;;15.75;85.39
32638;BME280;19045;52.268;10.506;2022-07-05T02:38:24;101079.38;;;15.68;86.23
32638;BME280;19045;52.268;10.506;2022-07-05T02:40:51;101076.97;;;15.67;86.05
32638;BME280;19045;52.268;10.506;2022-07-05T02:43:17;101078.31;;;15.64;86.01
32638;BME280;19045;52.268;10.506;2022-07-05T02:45:44;101086.13;;;15.76;85.10
32638;BME280;19045;52.268;10.506;2022-07-05T02:48:11;101083.97;;;15.68;85.79
32638;BME280;19045;52.268;10.506;2022-07-05T02:50:39;101069.66;;;15.57;86.33
32638;BME280;19045;52.268;10.506;2022-07-05T02:53:05;101087.25;;;15.55;86.95
32638;BME280;19045;52.268;10.506;2022-07-05T02:55:32;101088.09;;;15.50;87.07
32638;BME280;19045;52.268;10.506;2022-07-05T02:57:58;101087.03;;;15.51;87.49
32638;BME280;19045;52.268;10.506;2022-07-05T03:00:25;101091.03;;;15.38;87.61
32638;BME280;19045;52.268;10.506;2022-07-05T03:02:52;101094.03;;;15.22;88.71
32638;BME280;19045;52.268;10.506;2022-07-05T03:05:18;101087.53;;;15.13;89.54
32638;BME280;19045;52.268;10.506;2022-07-05T03:07:46;101081.59;;;15.06;90.34
32638;BME280;19045;52.268;10.506;2022-07-05T03:10:13;101093.22;;;15.06;90.42
32638;BME280;19045;52.268;10.506;2022-07-05T03:12:40;101091.06;;;15.03;90.75
32638;BME280;19045;52.268;10.506;2022-07-05T03:15:07;101101.63;;;15.05;91.03
32638;BME280;19045;52.268;10.506;2022-07-05T03:17:34;101102.97;;;15.17;90.64
32638;BME280;19045;52.268;10.506;2022-07-05T03:20:01;101098.63;;;15.26;88.72
32638;BME280;19045;52.268;10.506;2022-07-05T03:22:27;101092.13;;;15.32;88.08
32638;BME280;19045;52.268;10.506;2022-07-05T03:24:55;101098.09;;;15.29;87.78
32638;BME280;19045;52.268;10.506;2022-07-05T03:27:22;101098.91;;;15.40;87.62
32638;BME280;19045;52.268;10.506;2022-07-05T03:29:49;101094.56;;;15.39;87.44
32638;BME280;19045;52.268;10.506;2022-07-05T03:32:15;101089.97;;;15.39;87.85
32638;BME280;19045;52.268;10.506;2022-07-05T03:34:42;101092.38;;;15.46;87.82
32638;BME280;19045;52.268;10.506;2022-07-05T03:37:09;101092.13;;;15.42;87.03
32638;BME280;19045;52.268;10.506;2022-07-05T03:39:35;101083.75;;;15.34;88.50
32638;BME280;19045;52.268;10.506;2022-07-05T03:42:04;101086.44;;;15.44;87.45
32638;BME280;19045;52.268;10.506;2022-07-05T03:44:33;101091.84;;;15.59;86.58
32638;BME280;19045;52.268;10.506;2022-07-05T03:47:00;101082.13;;;15.33;88.08
32638;BME280;19045;52.268;10.506;2022-07-05T03:49:27;101094.03;;;15.32;88.83
32638;BME280;19045;52.268;10.506;2022-07-05T03:51:53;101091.59;;;15.35;88.81
32638;BME280;19045;52.268;10.506;2022-07-05T03:54:20;101101.59;;;15.40;88.68
32638;BME280;19045;52.268;10.506;2022-07-05T03:56:46;101099.72;;;15.40;88.67
32638;BME280;19045;52.268;10.506;2022-07-05T03:59:14;101109.19;;;15.48;88.96
32638;BME280;19045;52.268;10.506;2022-07-05T04:01:41;101110.00;;;15.48;88.95
32638;BME280;19045;52.268;10.506;2022-07-05T04:04:08;101112.16;;;15.46;89.60
32638;BME280;19045;52.268;10.506;2022-07-05T04:06:34;101111.63;;;15.60;89.43
32638;BME280;19045;52.268;10.506;2022-07-05T04:09:01;101103.50;;;15.70;87.90
32638;BME280;19045;52.268;10.506;2022-07-05T04:11:27;101104.56;;;15.84;87.64
32638;BME280;19045;52.268;10.506;2022-07-05T04:13:57;101121.28;;;16.01;86.94
32638;BME280;19045;52.268;10.506;2022-07-05T04:16:25;101117.16;;;16.19;87.18
32638;BME280;19045;52.268;10.506;2022-07-05T04:18:52;101121.41;;;16.40;84.45
32638;BME280;19045;52.268;10.506;2022-07-05T04:21:19;101121.63;;;16.53;83.84
32638;BME280;19045;52.268;10.506;2022-07-05T04:23:45;101125.94;;;16.60;82.87
32638;BME280;19045;52.268;10.506;2022-07-05T04:26:12;101126.16;;;16.68;82.69
32638;BME280;19045;52.268;10.506;2022-07-05T04:28:38;101114.69;;;16.81;81.29
32638;BME280;19045;52.268;10.506;2022-07-05T04:31:05;101124.47;;;16.77;82.71
32638;BME280;19045;52.268;10.506;2022-07-05T04:33:33;101127.66;;;16.89;80.20
32638;BME280;19045;52.268;10.506;2022-07-05T04:36:00;101135.50;;;16.96;81.14
32638;BME280;19045;52.268;10.506;2022-07-05T04:38:27;101142.97;;;17.14;80.54
32638;BME280;19045;52.268;10.506;2022-07-05T04:40:54;101149.13;;;17.25;79.67
32638;BME280;19045;52.268;10.506;2022-07-05T04:43:21;101145.50;;;17.34;79.51
32638;BME280;19045;52.268;10.506;2022-07-05T04:45:48;101141.13;;;17.38;78.64
32638;BME280;19045;52.268;10.506;2022-07-05T04:48:14;101139.19;;;17.44;78.18
32638;BME280;19045;52.268;10.506;2022-07-05T04:50:42;101147.00;;;17.50;79.00
32638;BME280;19045;52.268;10.506;2022-07-05T04:53:09;101154.00;;;17.62;78.24
32638;BME280;19045;52.268;10.506;2022-07-05T04:55:36;101151.38;;;17.80;77.50
32638;BME280;19045;52.268;10.506;2022-07-05T04:58:03;101148.88;;;17.84;76.38
32638;BME280;19045;52.268;10.506;2022-07-05T05:00:29;101159.72;;;17.89;75.62
32638;BME280;19045;52.268;10.506;2022-07-05T05:02:56;101148.50;;;17.95;75.86
32638;BME280;19045;52.268;10.506;2022-07-05T05:05:22;101152.44;;;18.08;75.47
32638;BME280;19045;52.268;10.506;2022-07-05T05:07:50;101152.78;;;18.01;75.71
32638;BME280;19045;52.268;10.506;2022-07-05T05:10:17;101156.44;;;18.16;74.75
32638;BME280;19045;52.268;10.506;2022-07-05T05:12:44;101159.09;;;18.21;74.53
32638;BME280;19045;52.268;10.506;2022-07-05T05:15:10;101160.41;;;18.47;73.75
32638;BME280;19045;52.268;10.506;2022-07-05T05:17:38;101142.06;;;18.57;72.67
32638;BME280;19045;52.268;10.506;2022-07-05T05:20:06;101144.50;;;18.59;72.62
32638;BME280;19045;52.268;10.506;2022-07-05T05:22:36;101148.69;;;18.51;72.89
32638;BME280;19045;52.268;10.506;2022-07-05T05:25:04;101151.41;;;18.51;73.35
32638;BME280;19045;52.268;10.506;2022-07-05T05:27:31;101155.03;;;18.66;71.56
32638;BME280;19045;52.268;10.506;2022-07-05T05:29:58;101152.38;;;18.61;72.39
32638;BME280;19045;52.268;10.506;2022-07-05T05:32:25;101156.47;;;18.34;73.34
32638;BME280;19045;52.268;10.506;2022-07-05T05:34:51;101152.72;;;18.54;73.91
32638;BME280;19045;52.268;10.506;2022-07-05T05:37:18;101159.31;;;18.48;72.49
32638;BME280;19045;52.268;10.506;2022-07-05T05:39:45;101167.78;;;18.23;73.77
32638;BME280;19045;52.268;10.506;2022-07-05T05:42:13;101169.22;;;18.39;73.94
32638;BME280;19045;52.268;10.506;2022-07-05T05:44:39;101169.88;;;18.54;73.20
32638;BME280;19045;52.268;10.506;2022-07-05T05:47:06;101158.03;;;18.64;73.25
32638;BME280;19045;52.268;10.506;2022-07-05T05:49:33;101161.13;;;18.76;72.79
32638;BME280;19045;52.268;10.506;2022-07-05T05:51:59;101168.56;;;18.89;71.06
32638;BME280;19045;52.268;10.506;2022-07-05T05:54:26;101169.31;;;18.95;70.49
32638;BME280;19045;52.268;10.506;2022-07-05T05:56:53;101172.81;;;18.34;72.22
32638;BME280;19045;52.268;10.506;2022-07-05T05:59:21;101174.44;;;18.59;71.90
32638;BME280;19045;52.268;10.506;2022-07-05T06:01:47;101179.31;;;18.99;70.47
32638;BME280;19045;52.268;10.506;2022-07-05T06:04:14;101183.59;;;18.87;70.32
32638;BME280;19045;52.268;10.506;2022-07-05T06:06:41;101176.88;;;18.79;71.03
32638;BME280;19045;52.268;10.506;2022-07-05T06:09:07;101187.34;;;18.72;70.21
32638;BME280;19045;52.268;10.506;2022-07-05T06:11:34;101182.03;;;18.99;69.55
32638;BME280;19045;52.268;10.506;2022-07-05T06:14:01;101186.00;;;19.26;67.68
32638;BME280;19045;52.268;10.506;2022-07-05T06:16:29;101187.78;;;19.35;67.52
32638;BME280;19045;52.268;10.506;2022-07-05T06:18:55;101188.38;;;19.14;68.45
32638;BME280;19045;52.268;10.506;2022-07-05T06:21:23;101190.56;;;18.93;69.02
32638;BME280;19045;52.268;10.506;2022-07-05T06:23:49;101198.16;;;18.30;71.20
32638;BME280;19045;52.268;10.506;2022-07-05T06:26:16;101196.66;;;18.42;71.45
32638;BME280;19045;52.268;10.506;2022-07-05T06:28:43;101205.63;;;18.67;70.65
32638;BME280;19045;52.268;10.506;2022-07-05T06:31:09;101208.84;;;18.92;70.08
32638;BME280;19045;52.268;10.506;2022-07-05T06:33:37;101206.34;;;19.15;70.07
32638;BME280;19045;52.268;10.506;2022-07-05T06:36:04;101219.06;;;19.38;69.58
32638;BME280;19045;52.268;10.506;2022-07-05T06:38:31;101202.59;;;19.48;69.23
32638;BME280;19045;52.268;10.506;2022-07-05T06:40:58;101208.97;;;19.38;68.87
32638;BME280;19045;52.268;10.506;2022-07-05T06:43:25;101205.44;;;20.02;67.82
32638;BME280;19045;52.268;10.506;2022-07-05T06:45:52;101206.53;;;20.61;64.68
32638;BME280;19045;52.268;10.506;2022-07-05T06:48:19;101215.91;;;20.69;62.86
32638;BME280;19045;52.268;10.506;2022-07-05T06:50:47;101212.19;;;20.65;63.20
32638;BME280;19045;52.268;10.506;2022-07-05T06:53:14;101212.41;;;20.54;63.83
32638;BME280;19045;52.268;10.506;2022-07-05T06:55:40;101212.19;;;20.51;62.51
32638;BME280;19045;52.268;10.506;2022-07-05T06:58:09;101205.19;;;20.72;63.21
32638;BME280;19045;52.268;10.506;2022-07-05T07:00:38;101212.97;;;21.28;60.86
32638;BME280;19045;52.268;10.506;2022-07-05T07:03:05;101206.63;;;21.41;60.37
32638;BME280;19045;52.268;10.506;2022-07-05T07:05:31;101206.59;;;21.77;58.28
32638;BME280;19045;52.268;10.506;2022-07-05T07:07:59;101218.25;;;21.91;56.79
32638;BME280;19045;52.268;10.506;2022-07-05T07:10:43;101224.22;;;22.24;56.12
32638;BME280;19045;52.268;10.506;2022-07-05T07:13:10;101220.75;;;22.41;54.82
32638;BME280;19045;52.268;10.506;2022-07-05T07:15:37;101213.28;;;22.63;54.93
32638;BME280;19045;52.268;10.506;2022-07-05T07:18:04;101209.50;;;21.81;55.98
32638;BME280;19045;52.268;10.506;2022-07-05T07:20:31;101220.41;;;21.14;58.24
32638;BME280;19045;52.268;10.506;2022-07-05T07:22:57;101218.44;;;21.28;59.13
32638;BME280;19045;52.268;10.506;2022-07-05T07:25:25;101210.66;;;21.88;57.54
32638;BME280;19045;52.268;10.506;2022-07-05T07:27:54;101206.31;;;22.57;56.36
32638;BME280;19045;52.268;10.506;2022-07-05T07:30:23;101203.66;;;22.83;53.72
32638;BME280;19045;52.268;10.506;2022-07-05T07:32:50;101208.16;;;22.31;55.18
32638;BME280;19045;52.268;10.506;2022-07-05T07:35:17;101213.84;;;21.59;57.92
32638;BME280;19045;52.268;10.506;2022-07-05T07:37:43;101213.47;;;21.97;57.74
32638;BME280;19045;52.268;10.506;2022-07-05T07:40:10;101200.44;;;22.90;55.71
32638;BME280;19045;52.268;10.506;2022-07-05T07:42:38;101198.50;;;23.67;52.95
32638;BME280;19045;52.268;10.506;2022-07-05T07:45:06;101202.34;;;24.39;50.82
32638;BME280;19045;52.268;10.506;2022-07-05T07:47:34;101200.72;;;24.67;50.09
32638;BME280;19045;52.268;10.506;2022-07-05T07:50:01;101201.81;;;24.45;49.37
32638;BME280;19045;52.268;10.506;2022-07-05T07:52:28;101197.50;;;23.81;51.96
32638;BME280;19045;52.268;10.506;2022-07-05T07:54:55;101196.72;;;23.72;51.65
32638;BME280;19045;52.268;10.506;2022-07-05T07:57:22;101205.00;;;24.18;50.90
32638;BME280;19045;52.268;10.506;2022-07-05T07:59:50;101202.00;;;23.94;50.34
32638;BME280;19045;52.268;10.506;2022-07-05T08:02:17;101209.91;;;22.67;53.72
32638;BME280;19045;52.268;10.506;2022-07-05T08:04:46;101208.41;;;21.37;57.60
32638;BME280;19045;52.268;10.506;2022-07-05T08:07:13;101207.38;;;21.11;59.64
32638;BME280;19045;52.268;10.506;2022-07-05T08:09:39;101197.69;;;21.49;58.03
32638;BME280;19045;52.268;10.506;2022-07-05T08:12:07;101203.66;;;21.74;56.74
32638;BME280;19045;52.268;10.506;2022-07-05T08:14:34;101197.00;;;22.19;55.08
32638;BME280;19045;52.268;10.506;2022-07-05T08:17:02;101195.44;;;21.74;57.16
32638;BME280;19045;52.268;10.506;2022-07-05T08:19:34;101198.53;;;22.34;55.56
32638;BME280;19045;52.268;10.506;2022-07-05T08:22:26;101200.38;;;22.16;54.79
32638;BME280;19045;52.268;10.506;2022-07-05T08:24:55;101201.31;;;22.11;55.77
32638;BME280;19045;52.268;10.506;2022-07-05T08:27:21;101193.88;;;22.51;53.73
32638;BME280;19045;52.268;10.506;2022-07-05T08:29:48;101189.66;;;23.36;52.33
32638;BME280;19045;52.268;10.506;2022-07-05T08:32:17;101200.63;;;23.62;51.26
32638;BME280;19045;52.268;10.506;2022-07-05T08:34:43;101199.97;;;23.13;51.43
32638;BME280;19045;52.268;10.506;2022-07-05T08:37:10;101204.78;;;22.82;52.78
32638;BME280;19045;52.268;10.506;2022-07-05T08:39:37;101195.91;;;22.94;52.83
32638;BME280;19045;52.268;10.506;2022-07-05T08:42:08;101200.94;;;22.92;52.70
32638;BME280;19045;52.268;10.506;2022-07-05T08:44:37;101204.34;;;22.49;53.51
32638;BME280;19045;52.268;10.506;2022-07-05T08:47:09;101202.31;;;22.24;54.02
32638;BME280;19045;52.268;10.506;2022-07-05T08:49:38;101204.94;;;21.98;55.22
32638;BME280;19045;52.268;10.506;2022-07-05T08:52:08;101203.47;;;21.92;55.53
32638;BME280;19045;52.268;10.506;2022-07-05T08:54:36;101209.56;;;21.89;55.78
32638;BME280;19045;52.268;10.506;2022-07-05T08:57:03;101204.28;;;21.93;55.38
32638;BME280;19045;52.268;10.506;2022-07-05T08:59:30;101206.59;;;21.77;55.44
32638;BME280;19045;52.268;10.506;2022-07-05T09:01:57;101214.13;;;21.94;54.41
32638;BME280;19045;52.268;10.506;2022-07-05T09:04:29;101217.53;;;22.08;53.61
32638;BME280;19045;52.268;10.506;2022-07-05T09:07:03;101198.97;;;22.67;50.13
32638;BME280;19045;52.268;10.506;2022-07-05T09:09:33;101197.84;;;22.76;47.86
32638;BME280;19045;52.268;10.506;2022-07-05T09:12:00;101197.22;;;23.65;46.88
32638;BME280;19045;52.268;10.506;2022-07-05T09:14:27;101193.19;;;22.37;48.94
32638;BME280;19045;52.268;10.506;2022-07-05T09:16:54;101198.19;;;22.35;49.28
32638;BME280;19045;52.268;10.506;2022-07-05T09:19:20;101193.69;;;22.39;49.21
32638;BME280;19045;52.268;10.506;2022-07-05T09:21:47;101195.63;;;22.95;48.63
32638;BME280;19045;52.268;10.506;2022-07-05T09:24:22;101191.75;;;23.65;45.16
32638;BME280;19045;52.268;10.506;2022-07-05T09:26:49;101191.88;;;23.77;44.82
32638;BME280;19045;52.268;10.506;2022-07-05T09:29:18;101201.59;;;23.66;44.55
32638;BME280;19045;52.268;10.506;2022-07-05T09:31:47;101202.72;;;23.48;43.94
32638;BME280;19045;52.268;10.506;2022-07-05T09:34:15;101203.66;;;22.92;45.07
32638;BME280;19045;52.268;10.506;2022-07-05T09:36:52;101188.50;;;23.37;44.24
32638;BME280;19045;52.268;10.506;2022-07-05T09:39:35;101195.81;;;24.05;43.99
32638;BME280;19045;52.268;10.506;2022-07-05T09:42:14;101199.00;;;23.70;41.22
32638;BME280;19045;52.268;10.506;2022-07-05T09:44:43;101203.38;;;23.62;41.12
32638;BME280;19045;52.268;10.506;2022-07-05T09:47:11;101202.72;;;23.65;41.16
32638;BME280;19045;52.268;10.506;2022-07-05T09:49:42;101191.00;;;23.94;40.92
32638;BME280;19045;52.268;10.506;2022-07-05T09:52:09;101198.38;;;24.10;42.68
32638;BME280;19045;52.268;10.506;2022-07-05T09:54:37;101197.38;;;24.24;41.35
32638;BME280;19045;52.268;10.506;2022-07-05T09:57:04;101194.75;;;24.94;40.50
32638;BME280;19045;52.268;10.506;2022-07-05T09:59:31;101197.91;;;24.84;40.49
32638;BME280;19045;52.268;10.506;2022-07-05T10:01:57;101194.94;;;24.31;39.36
32638;BME280;19045;52.268;10.506;2022-07-05T10:04:24;101196.13;;;24.21;39.42
32638;BME280;19045;52.268;10.506;2022-07-05T10:06:51;101191.53;;;24.34;39.62
32638;BME280;19045;52.268;10.506;2022-07-05T10:09:18;101190.56;;;24.30;39.91
32638;BME280;19045;52.268;10.506;2022-07-05T10:11:46;101197.16;;;24.46;39.11
32638;BME280;19045;52.268;10.506;2022-07-05T10:14:19;101195.97;;;24.85;38.52
32638;BME280;19045;52.268;10.506;2022-07-05T10:16:52;101194.72;;;25.36;37.32
32638;BME280;19045;52.268;10.506;2022-07-05T10:19:19;101194.72;;;25.56;36.04
32638;BME280;19045;52.268;10.506;2022-07-05T10:21:47;101189.16;;;25.77;36.08
32638;BME280;19045;52.268;10.506;2022-07-05T10:24:16;101200.88;;;25.86;36.67
32638;BME280;19045;52.268;10.506;2022-07-05T10:26:44;101196.16;;;26.19;35.17
32638;BME280;19045;52.268;10.506;2022-07-05T10:29:14;101194.53;;;26.43;34.37
32638;BME280;19045;52.268;10.506;2022-07-05T10:31:42;101201.78;;;26.23;34.54
32638;BME280;19045;52.268;10.506;2022-07-05T10:34:09;101197.94;;;25.91;35.64
32638;BME280;19045;52.268;10.506;2022-07-05T10:36:38;101199.44;;;25.35;34.97
32638;BME280;19045;52.268;10.506;2022-07-05T10:39:06;101210.94;;;25.49;35.90
32638;BME280;19045;52.268;10.506;2022-07-05T10:41:34;101201.13;;;25.93;35.21
32638;BME280;19045;52.268;10.506;2022-07-05T10:44:01;101196.75;;;25.06;35.47
32638;BME280;19045;52.268;10.506;2022-07-05T10:46:36;101198.50;;;25.10;36.29
32638;BME280;19045;52.268;10.506;2022-07-05T10:49:11;101196.69;;;24.94;37.34
32638;BME280;19045;52.268;10.506;2022-07-05T10:51:38;101189.22;;;24.44;37.38
32638;BME280;19045;52.268;10.506;2022-07-05T10:54:05;101176.38;;;24.57;36.70
32638;BME280;19045;52.268;10.506;2022-07-05T10:56:32;101186.91;;;23.28;38.89
32638;BME280;19045;52.268;10.506;2022-07-05T10:59:07;101182.53;;;22.84;40.01
32638;BME280;19045;52.268;10.506;2022-07-05T11:01:38;101188.72;;;24.13;39.14
32638;BME280;19045;52.268;10.506;2022-07-05T11:04:32;101183.53;;;25.41;37.74
32638;BME280;19045;52.268;10.506;2022-07-05T11:07:01;101185.50;;;26.18;35.68
32638;BME280;19045;52.268;10.506;2022-07-05T11:09:28;101181.53;;;25.95;34.94
32638;BME280;19045;52.268;10.506;2022-07-05T11:12:08;101190.13;;;25.93;35.72
32638;BME280;19045;52.268;10.506;2022-07-05T11:14:38;101195.56;;;26.14;34.87
32638;BME280;19045;52.268;10.506;2022-07-05T11:17:20;101181.78;;;26.75;35.00
32638;BME280;19045;52.268;10.506;2022-07-05T11:20:08;101163.44;;;27.06;33.66
32638;BME280;19045;52.268;10.506;2022-07-05T11:22:36;101174.91;;;26.32;34.02
32638;BME280;19045;52.268;10.506;2022-07-05T11:25:05;101168.78;;;26.02;35.43
32638;BME280;19045;52.268;10.506;2022-07-05T11:27:33;101175.47;;;26.26;34.84
32638;BME280;19045;52.268;10.506;2022-07-05T11:30:00;101171.09;;;26.73;33.52
32638;BME280;19045;52.268;10.506;2022-07-05T11:32:37;101167.88;;;26.71;33.53
32638;BME280;19045;52.268;10.506;2022-07-05T11:35:14;101172.97;;;26.20;34.63
32638;BME280;19045;52.268;10.506;2022-07-05T11:38:03;101174.84;;;25.96;34.31
32638;BME280;19045;52.268;10.506;2022-07-05T11:40:32;101172.16;;;26.32;33.94
32638;BME280;19045;52.268;10.506;2022-07-05T11:42:59;101162.03;;;26.60;32.93
32638;BME280;19045;52.268;10.506;2022-07-05T11:45:28;101156.56;;;24.72;35.03
32638;BME280;19045;52.268;10.506;2022-07-05T11:47:57;101151.91;;;24.05;36.79
32638;BME280;19045;52.268;10.506;2022-07-05T11:50:26;101154.78;;;24.97;35.11
32638;BME280;19045;52.268;10.506;2022-07-05T11:52:53;101163.75;;;25.27;34.63
32638;BME280;19045;52.268;10.506;2022-07-05T11:55:20;101154.91;;;25.21;34.74
32638;BME280;19045;52.268;10.506;2022-07-05T11:57:50;101148.81;;;25.15;35.02
32638;BME280;19045;52.268;10.506;2022-07-05T12:00:31;101155.56;;;25.72;33.85
32638;BME280;19045;52.268;10.506;2022-07-05T12:02:59;101138.56;;;25.04;33.87
32638;BME280;19045;52.268;10.506;2022-07-05T12:05:30;101139.53;;;25.20;33.81
32638;BME280;19045;52.268;10.506;2022-07-05T12:07:58;101137.63;;;23.83;35.47
32638;BME280;19045;52.268;10.506;2022-07-05T12:10:25;101145.34;;;24.27;35.99
32638;BME280;19045;52.268;10.506;2022-07-05T12:13:10;101146.13;;;24.86;34.07
32638;BME280;19045;52.268;10.506;2022-07-05T12:15:37;101137.97;;;25.31;34.46
32638;BME280;19045;52.268;10.506;2022-07-05T12:18:06;101146.63;;;25.09;34.54
32638;BME280;19045;52.268;10.506;2022-07-05T12:20:35;101140.75;;;25.43;33.37
32638;BME280;19045;52.268;10.506;2022-07-05T12:23:03;101145.47;;;25.43;33.92
32638;BME280;19045;52.268;10.506;2022-07-05T12:25:31;101156.38;;;26.08;33.14
32638;BME280;19045;52.268;10.506;2022-07-05T12:28:00;101145.88;;;26.23;32.17
32638;BME280;19045;52.268;10.506;2022-07-05T12:30:29;101144.03;;;26.14;32.28
32638;BME280;19045;52.268;10.506;2022-07-05T12:32:58;101133.59;;;26.20;32.25
32638;BME280;19045;52.268;10.506;2022-07-05T12:35:32;101134.84;;;26.47;32.48
32638;BME280;19045;52.268;10.506;2022-07-05T12:38:04;101125.28;;;26.56;32.00
32638;BME280;19045;52.268;10.506;2022-07-05T12:40:31;101133.03;;;26.79;32.21
32638;BME280;19045;52.268;10.506;2022-07-05T12:43:03;101137.25;;;26.36;31.85
32638;BME280;19045;52.268;10.506;2022-07-05T12:45:30;101131.47;;;26.65;31.10